Bushnell, FL (33513)

5:42 PM EDT on October 31, 2014 (GMT -0400)
The Oaks | Change Station
CLOSE
Current Station
Personal Weather Station
Location: Bushnell, FL
Elevation: 64 ft
Nearby Weather Stations
Active Advisory: Lake Wind Advisory

Elev 64 ft 28.67 °N, 82.13 °W | Updated 2 minutes ago

Clear
Clear
75.6 °F
Feels Like 78 °F
N
4.0
Wind Variable Wind from West
Gusts 8.5 mph

Today
High -- | Low -- °F
--% Chance of Precip.
Yesterday
High -- | Low -- °F
Precip. -- in
7:39 AM 6:43 PM
First Quarter, 59% visible
Pressure 29.85 in
Visibility 10.0 miles
Clouds Clear
Heat Index 78 °F
Dew Point 50 °F
Humidity 41%
Rainfall 0.00 in
Snow Depth Not available.
UV 1 out of 12
Pollen 5.00 out of 12
Air Quality Not available.
Flu Activity Not available.
METAR KINF 312135Z AUTO 26004KT 10SM CLR 21/09 A2985 RMK AO2

More Conditions Fewer Conditions

Pressure 29.85 in
Visibility 10.0 miles
Clouds Clear
Heat Index 78 °F
Dew Point 50 °F
Humidity 41%
Rainfall 0.00 in
Snow Depth Not available.
UV 1 out of 12
Pollen 5.00 out of 12
Air Quality Not available.
Flu Activity Not available.
METAR KINF 312135Z AUTO 26004KT 10SM CLR 21/09 A2985 RMK AO2

More Conditions Fewer Conditions

10-Day Weather Forecast

Almanac

Astronomy

Oct. 31, 2014 Rise Set
Actual Time
Civil Twilight
Nautical Twilight
Astronomical Twilight
Moon
Length of Visible Light
Length of Day
Tomorrow will be .
, % of the Moon is Illuminated

Today's Extremes

State Highs State Lows

Community

WunderPhotos

Upload Photos

1,766,740 photos uploaded!

WunderBlogs® & News

Nearby

Air Quality

  Air Quality AQ Index Pollutant
Not available.

Snow Depth

Station Depth Elevation

Earthquake Activity

City Distance Mag. Time & Date
Minimum magnitude displayed is 2.5.

Coastal Water Temperatures

Place Temperature

Nearby Weather Stations